Time;durP1;ratioP1;P1;durP2;ratioP2;P2;SDS_P1;SDS_P2;PMS_P1;PMS_P2;Temp;Humidity;BMP_temperature;BMP_pressure;BME280_temperature;BME280_humidity;BME280_pressure;Samples;Min_cycle;Max_cycle;Signal;HPM_P1;HPM_P2
2022/01/12 00:00:27;;;;;;;1.60;1.50;;;;;;;0.93;27.87;100404.84;5078343;28;20547;-70
2022/01/12 00:02:53;;;;;;;2.20;1.80;;;;;;;1.26;27.86;100441.47;5078047;28;20067;-71
2022/01/12 00:05:20;;;;;;;4.43;2.13;;;;;;;1.49;28.00;100444.56;5094358;28;20078;-71
2022/01/12 00:07:48;;;;;;;1.30;1.20;;;;;;;1.37;27.72;100455.69;5077701;28;20039;-71
2022/01/12 00:10:13;;;;;;;2.07;1.60;;;;;;;1.25;27.79;100453.72;5094421;28;20047;-71
2022/01/12 00:12:40;;;;;;;1.50;1.40;;;;;;;1.58;27.66;100472.03;5077617;28;20048;-71
2022/01/12 00:15:06;;;;;;;1.60;1.50;;;;;;;1.41;27.64;100482.53;5078410;28;20516;-71
2022/01/12 00:17:32;;;;;;;17.20;1.83;;;;;;;1.22;27.59;100464.34;5061027;28;20044;-71
2022/01/12 00:19:58;;;;;;;1.93;1.60;;;;;;;1.15;27.23;100467.34;5060643;28;20039;-71
2022/01/12 00:22:23;;;;;;;1.63;1.53;;;;;;;1.08;27.58;100461.59;5111098;28;20142;-72
2022/01/12 00:35:55;;;;;;;1.60;1.37;;;;;;;1.71;27.59;100470.44;5048630;28;20048;-71
2022/01/12 00:38:22;;;;;;;1.63;1.53;;;;;;;1.27;27.59;100410.00;5076886;28;20035;-71
2022/01/12 00:40:50;;;;;;;2.23;1.70;;;;;;;1.68;27.38;100471.44;5076978;28;20042;-71
2022/01/12 00:43:19;;;;;;;1.50;1.33;;;;;;;1.48;27.33;100457.72;5076691;28;20073;-72
2022/01/12 00:45:46;;;;;;;1.73;1.63;;;;;;;1.18;27.60;100456.72;5077249;28;20071;-72
2022/01/12 00:48:17;;;;;;;1.37;1.20;;;;;;;1.86;27.73;100464.34;5093528;28;20044;-72
2022/01/12 00:50:43;;;;;;;2.03;1.70;;;;;;;1.32;27.77;100468.16;5076583;28;20047;-71
2022/01/12 00:53:09;;;;;;;2.40;1.70;;;;;;;1.38;27.67;100467.81;5060279;28;20039;-70
2022/01/12 00:55:36;;;;;;;1.63;1.30;;;;;;;1.40;27.82;100463.38;5075889;28;20043;-71
2022/01/12 00:58:02;;;;;;;1.27;1.20;;;;;;;1.37;27.79;100465.28;5060048;28;20044;-71
2022/01/12 01:00:29;;;;;;;1.40;1.30;;;;;;;1.08;27.08;100464.19;5059991;28;20073;-71
2022/01/12 01:02:55;;;;;;;3.00;2.20;;;;;;;1.07;27.21;100449.44;5076671;28;20545;-70
2022/01/12 01:05:22;;;;;;;1.40;1.30;;;;;;;1.37;27.17;100471.38;5093436;28;20043;-70
2022/01/12 01:07:49;;;;;;;1.67;1.57;;;;;;;0.92;27.13;100442.34;5076427;28;20057;-70
2022/01/12 01:10:45;;;;;;;3.93;2.53;;;;;;;1.17;27.09;100470.75;5059955;28;20484;-70
2022/01/12 01:13:04;;;;;;;2.33;1.67;;;;;;;0.76;27.40;100440.59;5091703;28;20059;-70
2022/01/12 01:15:56;;;;;;;2.03;1.33;;;;;;;1.33;27.56;100469.88;5075521;28;20039;-70
2022/01/12 01:26:44;;;;;;;1.50;1.40;;;;;;;0.94;27.67;100469.28;5093885;28;20051;-70
2022/01/12 01:29:10;;;;;;;2.37;1.63;;;;;;;0.74;27.27;100472.03;5091349;28;20031;-70
2022/01/12 01:31:38;;;;;;;1.60;1.50;;;;;;;0.72;27.42;100447.78;5074073;28;20047;-70
2022/01/12 01:34:11;;;;;;;1.30;1.20;;;;;;;0.64;27.44;100434.22;5076645;28;20039;-70
2022/01/12 01:36:50;;;;;;;1.50;1.40;;;;;;;1.11;27.27;100456.19;5092931;28;20047;-70
2022/01/12 01:39:22;;;;;;;;;;;;;;;1.41;26.54;100472.94;5076742;28;20043;-70
2022/01/12 01:41:52;;;;;;;1.63;1.52;;;;;;;0.88;27.05;100464.38;5092781;28;19972;-70
2022/01/12 01:55:10;;;;;;;1.57;1.47;;;;;;;0.53;27.54;100451.34;5078978;28;20659;-70
2022/01/12 01:57:39;;;;;;;7.23;2.00;;;;;;;0.52;27.60;100455.75;5092801;28;20043;-69
2022/01/12 02:00:10;;;;;;;1.50;1.40;;;;;;;0.74;27.59;100463.38;5093039;28;20335;-70
2022/01/12 02:02:52;;;;;;;4.10;1.57;;;;;;;0.59;27.77;100458.88;5094800;28;20071;-70
2022/01/12 02:05:19;;;;;;;1.77;1.67;;;;;;;0.27;27.46;100473.53;5059960;28;20415;-70
2022/01/12 02:07:45;;;;;;;2.33;1.50;;;;;;;0.15;27.78;100466.28;5061934;28;20514;-70
2022/01/12 02:10:11;;;;;;;3.97;1.83;;;;;;;0.14;28.16;100438.44;5063457;28;20285;-70
2022/01/12 02:12:44;;;;;;;2.70;1.70;;;;;;;0.18;27.68;100453.06;5081170;28;20075;-70
2022/01/12 02:15:19;;;;;;;1.93;1.53;;;;;;;0.93;27.42;100457.13;5080513;28;20320;-69
2022/01/12 02:39:44;;;;;;;1.77;1.40;;;;;;;0.38;27.85;100446.88;5081369;28;20346;-71
2022/01/12 02:40:02;;;;;;;2.13;1.90;;;;;;;0.60;27.96;100443.13;5113105;28;20047;-70
2022/01/12 02:42:29;;;;;;;1.83;1.67;;;;;;;0.08;27.74;100412.63;5078768;28;20043;-70
2022/01/12 02:53:54;;;;;;;1.53;1.40;;;;;;;0.31;27.92;100435.06;5026480;28;20288;-70
2022/01/12 02:56:36;;;;;;;1.73;1.60;;;;;;;0.55;27.43;100423.38;5095830;28;20290;-71
2022/01/12 02:59:06;;;;;;;3.50;1.87;;;;;;;-0.14;27.84;100373.66;5094153;28;20281;-70
2022/01/12 03:04:02;;;;;;;1.93;1.73;;;;;;;0.51;27.51;100396.53;5112125;28;20289;-70
2022/01/12 03:06:32;;;;;;;1.43;1.33;;;;;;;0.23;27.38;100409.28;5095009;28;20280;-70
2022/01/12 03:09:00;;;;;;;1.73;1.63;;;;;;;0.22;27.63;100415.44;5095474;28;20307;-70
2022/01/12 03:11:28;;;;;;;2.03;1.67;;;;;;;-0.22;27.66;100299.25;5094991;28;20696;-71
2022/01/12 03:13:58;;;;;;;2.23;1.83;;;;;;;0.05;27.64;100425.00;5062389;28;20811;-71
2022/01/12 03:16:26;;;;;;;1.50;1.40;;;;;;;0.25;27.62;100423.13;5077906;28;20290;-71
2022/01/12 03:18:59;;;;;;;2.00;1.40;;;;;;;0.66;27.41;100394.94;5061568;28;20503;-71
2022/01/12 03:21:31;;;;;;;2.30;1.97;;;;;;;0.48;26.96;100399.31;5077825;28;20047;-70
2022/01/12 03:23:58;;;;;;;2.30;2.03;;;;;;;-0.08;28.10;100370.75;5094738;28;20346;-71
2022/01/12 03:26:28;;;;;;;1.50;1.40;;;;;;;0.43;27.70;100406.53;5077738;28;20285;-71
2022/01/12 03:28:55;;;;;;;1.50;1.40;;;;;;;-0.09;27.67;100402.16;5094869;28;20280;-71
2022/01/12 03:31:24;;;;;;;4.03;2.30;;;;;;;0.46;27.42;100434.28;5078077;28;20284;-69
2022/01/12 03:33:59;;;;;;;2.10;1.60;;;;;;;0.37;27.73;100419.06;5095114;28;20285;-72
2022/01/12 03:39:14;;;;;;;3.63;1.97;;;;;;;0.65;27.54;100404.53;5078927;28;20053;-71
2022/01/12 03:41:42;;;;;;;2.73;2.00;;;;;;;0.36;27.53;100422.59;5061125;28;20835;-71
2022/01/12 03:44:12;;;;;;;2.10;1.90;;;;;;;0.56;27.85;100427.69;5078080;28;20300;-70
2022/01/12 03:46:45;;;;;;;1.80;1.70;;;;;;;0.45;27.52;100393.38;5077235;28;20330;-72
2022/01/12 03:49:13;;;;;;;3.07;2.20;;;;;;;0.26;27.55;100426.59;5111146;28;20285;-70
2022/01/12 03:51:40;;;;;;;1.57;1.47;;;;;;;-0.08;27.67;100415.13;5094216;28;20293;-70
2022/01/12 03:54:07;;;;;;;2.17;2.03;;;;;;;0.02;27.96;100415.53;5077967;28;20290;-70
2022/01/12 03:56:33;;;;;;;1.70;1.50;;;;;;;0.13;28.12;100404.56;5094472;28;20072;-71
2022/01/12 03:59:00;;;;;;;2.47;1.70;;;;;;;0.15;27.72;100427.09;5094729;28;20350;-71
2022/01/12 04:01:26;;;;;;;2.57;1.93;;;;;;;0.08;27.73;100428.31;5076991;28;20273;-71
2022/01/12 04:04:01;;;;;;;2.97;1.70;;;;;;;0.06;28.00;100413.63;5060996;28;20143;-71
2022/01/12 04:09:14;;;;;;;2.37;1.80;;;;;;;-0.03;28.06;100407.06;5080336;28;20035;-71
2022/01/12 04:11:40;;;;;;;2.20;2.00;;;;;;;-0.04;27.39;100415.84;5090788;28;20304;-69
2022/01/12 04:14:07;;;;;;;2.10;1.90;;;;;;;0.05;27.80;100414.56;5041422;28;20115;-67
2022/01/12 04:16:34;;;;;;;2.17;1.50;;;;;;;0.15;27.74;100419.28;5074066;28;20285;-66
2022/01/12 04:19:00;;;;;;;1.70;1.57;;;;;;;-0.04;27.65;100389.72;5056799;28;20342;-67
2022/01/12 04:21:29;;;;;;;1.70;1.60;;;;;;;0.02;28.05;100404.28;5056784;28;20135;-66
2022/01/12 04:23:59;;;;;;;3.10;1.87;;;;;;;0.59;27.76;100411.84;5056936;28;20040;-66
2022/01/12 04:26:26;;;;;;;2.08;1.95;;;;;;;0.30;27.51;100409.81;5092171;28;20798;-66
2022/01/12 04:28:52;;;;;;;2.53;2.20;;;;;;;-0.05;27.13;100399.31;5092368;28;20183;-70
2022/01/12 04:31:18;;;;;;;1.67;1.57;;;;;;;-0.18;27.54;100410.41;5073422;28;20035;-68
2022/01/12 04:33:45;;;;;;;2.13;1.97;;;;;;;-0.11;27.63;100373.50;5109397;28;20281;-68
2022/01/12 04:36:13;;;;;;;2.87;1.87;;;;;;;0.13;27.74;100421.09;5092264;28;20361;-67
2022/01/12 04:38:40;;;;;;;1.60;1.50;;;;;;;0.27;27.83;100423.03;5058463;28;20645;-67
2022/01/12 04:41:08;;;;;;;2.83;1.90;;;;;;;0.33;27.83;100420.97;5109143;28;20278;-67
2022/01/12 04:43:35;;;;;;;1.90;1.67;;;;;;;0.29;27.89;100415.97;5092149;28;20296;-67
2022/01/12 04:48:35;;;;;;;3.00;2.43;;;;;;;0.06;27.41;100409.28;5071487;28;20282;-66
2022/01/12 04:51:03;;;;;;;1.53;1.43;;;;;;;0.06;28.02;100421.47;5088895;28;20714;-68
2022/01/12 04:53:30;;;;;;;1.63;1.53;;;;;;;0.02;27.81;100417.31;5088517;28;20373;-67
2022/01/12 04:55:57;;;;;;;1.77;1.63;;;;;;;0.25;27.13;100427.50;5054982;28;20555;-67
2022/01/12 04:58:24;;;;;;;2.17;1.97;;;;;;;-0.13;27.40;100385.81;5088623;28;20359;-67
2022/01/12 05:00:51;;;;;;;1.83;1.47;;;;;;;0.24;27.44;100421.44;5088642;28;20274;-66
2022/01/12 05:06:36;;;;;;;3.37;2.10;;;;;;;-0.09;27.22;100418.66;5088695;28;20286;-66
2022/01/12 05:10:02;;;;;;;2.30;2.00;;;;;;;0.16;27.12;100420.09;5086302;28;20282;-67
2022/01/12 05:14:39;;;;;;;1.60;1.43;;;;;;;-0.08;27.68;100420.34;5054823;28;20290;-66
2022/01/12 05:17:05;;;;;;;2.13;1.70;;;;;;;0.07;27.25;100434.47;5069518;28;20994;-67
2022/01/12 05:19:34;;;;;;;2.27;1.80;;;;;;;0.02;27.30;100431.22;5086249;28;20346;-67
2022/01/12 05:22:00;;;;;;;1.90;1.70;;;;;;;0.06;27.38;100431.91;5086831;28;20286;-66
2022/01/12 05:24:26;;;;;;;1.43;1.33;;;;;;;0.35;27.38;100427.00;5070417;28;20286;-67
2022/01/12 05:26:53;;;;;;;2.33;1.30;;;;;;;0.08;27.61;100428.31;5073818;28;20157;-66
2022/01/12 05:29:20;;;;;;;2.63;2.07;;;;;;;0.06;27.61;100427.56;5082940;28;20288;-66
2022/01/12 05:31:45;;;;;;;4.07;2.03;;;;;;;0.16;28.02;100435.78;5074423;28;20281;-66
2022/01/12 05:34:11;;;;;;;4.10;2.53;;;;;;;0.12;27.55;100435.09;5108671;28;20056;-67
2022/01/12 05:36:38;;;;;;;1.80;1.70;;;;;;;0.02;27.39;100419.94;5073815;28;20047;-67
2022/01/12 05:39:04;;;;;;;2.53;1.97;;;;;;;0.00;27.59;100425.25;5092163;28;20277;-67
2022/01/12 05:41:29;;;;;;;2.07;1.87;;;;;;;0.09;27.61;100430.00;5091621;28;20274;-66
2022/01/12 05:43:57;;;;;;;5.63;2.47;;;;;;;0.01;27.30;100424.31;5095816;28;20079;-66
2022/01/12 05:46:27;;;;;;;2.83;2.40;;;;;;;0.21;27.32;100444.25;5080354;28;20058;-67
2022/01/12 05:51:44;;;;;;;2.23;1.70;;;;;;;0.12;27.30;100431.63;5111743;28;19961;-67
2022/01/12 05:54:10;;;;;;;2.03;1.80;;;;;;;0.18;26.97;100428.72;5079311;28;20285;-68
2022/01/12 05:56:37;;;;;;;1.73;1.63;;;;;;;0.12;27.32;100423.78;5095505;28;20356;-67
2022/01/12 05:59:03;;;;;;;3.20;2.20;;;;;;;0.31;29.43;100425.44;5078797;28;20388;-67
2022/01/12 06:01:28;;;;;;;1.70;1.53;;;;;;;0.34;27.71;100424.44;5096127;28;20380;-67
2022/01/12 06:03:55;;;;;;;2.27;1.90;;;;;;;0.33;26.64;100430.56;5062788;28;20069;-67
2022/01/12 06:06:22;;;;;;;2.17;1.67;;;;;;;0.34;27.03;100414.81;5096411;28;20373;-67
2022/01/12 06:08:48;;;;;;;1.50;1.40;;;;;;;0.32;26.74;100431.50;5078827;28;20054;-67
2022/01/12 06:11:16;;;;;;;2.27;1.80;;;;;;;0.30;27.21;100430.72;5078618;28;20372;-67
2022/01/12 06:13:44;;;;;;;3.83;1.87;;;;;;;0.25;27.06;100417.06;5095568;28;20055;-68
2022/01/12 06:16:10;;;;;;;2.53;2.30;;;;;;;0.23;26.86;100426.72;5095688;28;20100;-67
2022/01/12 06:18:38;;;;;;;2.23;1.93;;;;;;;0.12;27.27;100422.03;5096443;28;20563;-67
2022/01/12 06:21:04;;;;;;;4.67;2.30;;;;;;;0.16;27.22;100435.78;5062670;28;20383;-67
2022/01/12 06:23:43;;;;;;;2.20;2.00;;;;;;;0.07;27.29;100434.47;5112762;28;20043;-68
2022/01/12 06:26:11;;;;;;;2.00;1.70;;;;;;;0.13;27.11;100451.59;5095251;28;20278;-67
2022/01/12 06:28:40;;;;;;;1.87;1.67;;;;;;;0.23;27.04;100447.63;5072592;28;20289;-67
2022/01/12 06:31:11;;;;;;;2.00;1.80;;;;;;;0.60;26.63;100443.13;5074878;28;20690;-68
2022/01/12 06:33:42;;;;;;;1.60;1.50;;;;;;;0.55;27.40;100457.34;5074874;28;20297;-68
2022/01/12 06:36:11;;;;;;;4.63;1.97;;;;;;;0.37;26.77;100451.25;5092404;28;20301;-69
2022/01/12 06:38:37;;;;;;;1.83;1.67;;;;;;;0.13;26.58;100455.06;5090498;28;20302;-68
2022/01/12 06:41:04;;;;;;;7.97;2.70;;;;;;;0.41;26.66;100457.19;5073839;28;20289;-68
2022/01/12 06:43:31;;;;;;;2.17;1.97;;;;;;;0.30;26.57;100449.00;5092215;28;20313;-67
2022/01/12 06:45:57;;;;;;;3.47;2.20;;;;;;;0.26;26.70;100458.78;5090649;28;20289;-68
2022/01/12 06:48:23;;;;;;;2.33;1.97;;;;;;;0.12;26.76;100461.22;5091490;28;20342;-66
2022/01/12 06:50:49;;;;;;;2.80;2.23;;;;;;;0.15;26.63;100455.84;5074297;28;20294;-68
2022/01/12 06:53:14;;;;;;;1.30;1.27;;;;;;;0.27;26.91;100468.31;5055892;28;20339;-67
2022/01/12 06:55:40;;;;;;;4.30;1.80;;;;;;;0.10;27.16;100418.63;5040923;28;20117;-66
2022/01/12 06:58:06;;;;;;;2.03;1.83;;;;;;;0.20;26.53;100421.66;5074228;28;20392;-67
2022/01/12 07:00:32;;;;;;;1.53;1.43;;;;;;;0.23;26.61;100416.28;5074226;28;20044;-67
2022/01/12 07:02:59;;;;;;;2.40;2.00;;;;;;;0.70;26.56;100461.81;5057875;28;20084;-66
2022/01/12 07:05:34;;;;;;;2.33;2.10;;;;;;;0.85;25.98;100466.28;5058355;28;20200;-67
2022/01/12 07:08:00;;;;;;;3.93;2.23;;;;;;;0.97;25.87;100450.00;5074361;28;20139;-67
2022/01/12 07:10:33;;;;;;;2.43;2.13;;;;;;;1.34;26.24;100447.13;5060022;28;20047;-67
2022/01/12 07:13:13;;;;;;;2.37;2.00;;;;;;;1.51;25.28;100437.47;5058315;28;20145;-68
2022/01/12 07:15:41;;;;;;;3.80;2.27;;;;;;;1.69;24.87;100439.09;5073643;28;20457;-67
2022/01/12 07:18:10;;;;;;;4.50;2.00;;;;;;;1.99;25.30;100433.97;5090677;28;20574;-67
2022/01/12 07:20:36;;;;;;;1.70;1.60;;;;;;;1.34;25.61;100394.78;5057301;28;20032;-67
2022/01/12 07:23:02;;;;;;;1.80;1.70;;;;;;;1.58;25.29;100440.63;5090442;28;20056;-67
2022/01/12 07:25:28;;;;;;;3.70;2.17;;;;;;;1.73;24.79;100445.88;5040725;28;20040;-67
2022/01/12 07:27:56;;;;;;;3.90;2.50;;;;;;;2.06;24.41;100444.97;5074281;28;20105;-67
2022/01/12 07:30:24;;;;;;;3.23;2.80;;;;;;;2.33;24.40;100446.88;5073900;28;20507;-67
2022/01/12 07:32:50;;;;;;;3.73;2.20;;;;;;;2.34;24.43;100448.56;5091704;28;20048;-67
2022/01/12 07:35:16;;;;;;;2.70;2.00;;;;;;;2.76;24.26;100450.50;5073388;28;20117;-67
2022/01/12 07:37:42;;;;;;;3.83;2.13;;;;;;;3.38;23.85;100445.81;5056623;28;20491;-66
2022/01/12 07:40:17;;;;;;;3.20;1.90;;;;;;;4.38;23.40;100447.34;5056710;28;20039;-67
2022/01/12 07:42:43;;;;;;;2.13;1.63;;;;;;;4.69;22.55;100444.41;5090740;28;20180;-67
2022/01/12 07:45:13;;;;;;;6.90;2.88;;;;;;;5.03;21.97;100442.03;5058254;28;20040;-67
2022/01/12 07:47:39;;;;;;;2.60;1.83;;;;;;;5.61;22.34;100440.69;5090259;28;20047;-67
2022/01/12 07:50:06;;;;;;;4.13;2.07;;;;;;;6.38;21.67;100405.13;5073276;28;20036;-67
2022/01/12 07:52:34;;;;;;;3.63;2.30;;;;;;;6.82;21.21;100444.06;5090232;28;20055;-67
2022/01/12 07:55:00;;;;;;;2.73;2.07;;;;;;;7.03;20.64;100399.38;5065965;28;20040;-67
2022/01/12 07:57:26;;;;;;;2.93;2.47;;;;;;;8.18;20.44;100429.72;5090429;28;20059;-67
2022/01/12 07:59:54;;;;;;;5.30;3.03;;;;;;;8.08;19.82;100446.47;5089983;28;20131;-67
2022/01/12 08:02:40;;;;;;;6.00;3.07;;;;;;;8.85;19.40;100440.97;5073478;28;20173;-68
2022/01/12 08:05:10;;;;;;;2.57;2.37;;;;;;;8.47;19.96;100432.72;5072060;28;20046;-67
2022/01/12 08:07:38;;;;;;;5.77;3.10;;;;;;;8.40;19.63;100435.00;5089352;28;20040;-67
2022/01/12 08:10:08;;;;;;;7.15;2.72;;;;;;;9.02;19.64;100431.63;5056196;28;20073;-67
2022/01/12 08:12:34;;;;;;;5.03;2.73;;;;;;;8.96;19.31;100427.69;5071686;28;20085;-67
2022/01/12 08:15:00;;;;;;;5.40;2.97;;;;;;;9.32;19.63;100416.59;5072691;28;20446;-67
2022/01/12 08:17:26;;;;;;;5.03;3.07;;;;;;;9.66;17.99;100418.03;5090227;28;20052;-66
2022/01/12 08:19:54;;;;;;;4.33;3.33;;;;;;;9.40;18.59;100422.09;5089349;28;20044;-67
2022/01/12 08:22:20;;;;;;;3.93;2.93;;;;;;;9.85;19.14;100401.34;5091338;28;20048;-67
2022/01/12 08:24:46;;;;;;;3.30;2.53;;;;;;;10.02;18.47;100392.75;5056587;28;20847;-67
2022/01/12 08:27:12;;;;;;;5.50;2.60;;;;;;;10.67;18.95;100406.25;5089740;28;20044;-65
2022/01/12 08:29:38;;;;;;;3.60;2.63;;;;;;;11.34;18.81;100409.69;5089148;28;20149;-64
2022/01/12 08:32:04;;;;;;;7.10;2.67;;;;;;;11.83;17.88;100403.22;5089194;28;20047;-65
2022/01/12 08:34:30;;;;;;;4.47;2.43;;;;;;;11.79;16.94;100407.16;5105874;28;20081;-65
2022/01/12 08:36:56;;;;;;;4.50;2.77;;;;;;;12.36;18.06;100409.47;5089605;28;20134;-64
2022/01/12 08:39:22;;;;;;;4.50;2.47;;;;;;;12.65;17.88;100402.13;5055494;28;20138;-66
2022/01/12 08:41:48;;;;;;;5.05;2.92;;;;;;;13.04;17.27;100397.31;5072298;28;20149;-66
2022/01/12 08:44:13;;;;;;;6.22;2.88;;;;;;;13.62;17.59;100389.53;5072258;28;20139;-65
2022/01/12 08:46:40;;;;;;;5.18;3.53;;;;;;;14.35;16.15;100389.66;5090632;28;20047;-65
2022/01/12 08:49:06;;;;;;;3.85;2.67;;;;;;;14.80;16.30;100390.06;5072159;28;20044;-65
2022/01/12 08:51:32;;;;;;;4.93;2.85;;;;;;;15.27;16.60;100363.41;5088800;28;20044;-65
2022/01/12 08:53:58;;;;;;;3.78;2.58;;;;;;;15.68;15.26;100397.16;5089891;28;20066;-66
2022/01/12 08:56:24;;;;;;;5.40;2.85;;;;;;;16.05;15.50;100396.53;5072515;28;20044;-65
2022/01/12 08:58:49;;;;;;;4.45;2.65;;;;;;;16.46;15.24;100388.09;5088452;28;20044;-67
2022/01/12 09:01:16;;;;;;;5.53;3.00;;;;;;;17.09;15.09;100397.69;5054511;28;20530;-65
2022/01/12 09:03:42;;;;;;;5.13;2.60;;;;;;;17.37;15.72;100361.16;5088591;28;20519;-66
2022/01/12 09:06:08;;;;;;;5.80;2.60;;;;;;;17.68;14.84;100383.34;5089887;28;20093;-67
2022/01/12 09:08:37;;;;;;;4.43;2.83;;;;;;;18.00;15.03;100356.91;5071733;28;20058;-66
2022/01/12 09:11:03;;;;;;;7.78;3.15;;;;;;;18.44;14.56;100389.09;5072070;28;20040;-67
2022/01/12 09:13:29;;;;;;;7.57;3.92;;;;;;;18.69;14.62;100390.41;5089521;28;20098;-65
2022/01/12 09:15:55;;;;;;;9.35;4.03;;;;;;;18.45;13.98;100383.53;5088646;28;20044;-65
2022/01/12 09:18:21;;;;;;;9.10;4.80;;;;;;;18.46;13.63;100373.59;5088020;28;20059;-66
2022/01/12 09:20:47;;;;;;;13.20;4.65;;;;;;;18.44;13.97;100348.75;5071545;28;20113;-67
2022/01/12 09:23:13;;;;;;;9.38;4.55;;;;;;;18.40;13.54;100347.47;5072170;28;20143;-66
2022/01/12 09:25:39;;;;;;;10.27;5.10;;;;;;;18.69;14.16;100344.66;5089776;28;20476;-64
2022/01/12 09:28:06;;;;;;;12.57;5.10;;;;;;;18.99;13.90;100342.66;5054911;28;20457;-65
2022/01/12 09:30:32;;;;;;;9.30;4.80;;;;;;;18.93;13.78;100338.84;5071785;28;20040;-64
2022/01/12 09:32:59;;;;;;;7.97;4.47;;;;;;;19.01;13.68;100336.03;5071724;28;20040;-72
2022/01/12 09:35:26;;;;;;;8.88;4.40;;;;;;;19.62;14.10;100321.75;5055241;28;20042;-66
2022/01/12 09:37:52;;;;;;;11.68;4.85;;;;;;;19.48;13.00;100321.91;5088529;28;20052;-66
2022/01/12 09:40:18;;;;;;;10.60;5.00;;;;;;;19.88;13.56;100315.66;5069584;28;20105;-68
2022/01/12 09:42:45;;;;;;;11.38;4.75;;;;;;;19.95;12.92;100317.34;5069424;28;20075;-67
2022/01/12 09:45:15;;;;;;;10.13;4.90;;;;;;;19.40;12.75;100304.03;5085799;28;20145;-68
2022/01/12 09:47:42;;;;;;;9.88;4.72;;;;;;;19.71;13.27;100317.03;5053868;28;20538;-67
2022/01/12 09:50:12;;;;;;;13.55;5.13;;;;;;;20.21;12.99;100319.31;5086088;28;20040;-66
2022/01/12 09:52:40;;;;;;;11.52;5.25;;;;;;;20.14;13.06;100290.69;5070101;28;20375;-66
2022/01/12 09:55:06;;;;;;;9.52;5.00;;;;;;;20.65;12.58;100313.41;5087078;28;20051;-65
2022/01/12 09:57:32;;;;;;;8.77;5.05;;;;;;;20.65;12.85;100302.59;5089393;28;20048;-66
2022/01/12 09:59:58;;;;;;;9.82;5.07;;;;;;;20.95;13.47;100306.53;5071050;28;20056;-76
2022/01/12 10:02:26;;;;;;;8.68;5.13;;;;;;;20.94;12.52;100302.19;5071880;28;20058;-65
2022/01/12 10:05:08;;;;;;;12.90;7.85;;;;;;;21.42;11.41;100299.03;5105232;28;20492;-66
2022/01/12 10:07:34;;;;;;;12.95;6.35;;;;;;;20.86;13.42;100307.78;5071361;28;20044;-66
2022/01/12 10:10:06;;;;;;;13.52;5.53;;;;;;;21.18;12.94;100305.09;5071382;28;20040;-66
2022/01/12 10:12:33;;;;;;;11.80;5.43;;;;;;;20.27;13.28;100299.63;5088049;28;20059;-65
2022/01/12 10:15:10;;;;;;;9.15;5.10;;;;;;;19.97;12.55;100315.25;5071069;28;20044;-65
2022/01/12 10:17:41;;;;;;;8.73;5.63;;;;;;;19.15;13.34;100302.78;5087847;28;20044;-65
2022/01/12 10:20:14;;;;;;;10.65;5.70;;;;;;;17.71;13.22;100265.56;5070757;28;20067;-64
2022/01/12 10:23:06;;;;;;;14.13;6.25;;;;;;;16.82;14.06;100311.38;5071038;28;20040;-64
2022/01/12 10:25:33;;;;;;;13.98;6.13;;;;;;;16.75;15.06;100304.22;5087780;28;20183;-68
2022/01/12 10:28:11;;;;;;;11.27;6.18;;;;;;;16.38;14.73;100294.28;5088767;28;20100;-69
2022/01/12 10:30:37;;;;;;;12.55;5.90;;;;;;;14.72;14.96;100295.63;5074499;28;20063;-65
2022/01/12 10:33:10;;;;;;;11.77;6.18;;;;;;;14.93;14.92;100301.25;5092905;28;20071;-65
2022/01/12 10:35:40;;;;;;;13.07;6.60;;;;;;;15.51;15.22;100291.13;5091593;28;20055;-66
2022/01/12 10:38:10;;;;;;;13.45;5.90;;;;;;;15.79;14.71;100291.50;5091460;28;20047;-65
2022/01/12 10:40:52;;;;;;;13.52;5.68;;;;;;;15.86;15.54;100290.59;5091427;28;20042;-64
2022/01/12 10:43:37;;;;;;;10.05;4.85;;;;;;;15.10;16.14;100285.03;5091505;28;20044;-65
2022/01/12 10:46:08;;;;;;;10.00;5.30;;;;;;;13.86;15.51;100254.28;5057764;28;20054;-64
2022/01/12 10:48:43;;;;;;;10.73;5.53;;;;;;;13.65;16.00;100277.94;5091348;28;20044;-64
2022/01/12 10:51:10;;;;;;;10.38;5.22;;;;;;;12.78;16.48;100271.97;5091217;28;20538;-64
2022/01/12 10:53:37;;;;;;;11.90;5.20;;;;;;;12.60;16.07;100265.84;5040936;28;20180;-64
2022/01/12 10:56:15;;;;;;;9.87;5.23;;;;;;;13.08;16.29;100252.84;5074137;28;20714;-64
2022/01/12 10:58:44;;;;;;;11.90;5.43;;;;;;;13.72;16.63;100244.25;5090697;28;20485;-64
2022/01/12 11:01:11;;;;;;;10.77;5.07;;;;;;;13.68;15.79;100250.06;5091107;28;20051;-65
2022/01/12 11:03:38;;;;;;;9.40;5.25;;;;;;;13.92;15.75;100218.91;5091232;28;20436;-66
2022/01/12 11:06:04;;;;;;;13.30;4.88;;;;;;;14.94;16.34;100260.16;5090766;28;20036;-63
2022/01/12 11:08:30;;;;;;;9.38;4.82;;;;;;;13.95;15.59;100167.00;5073740;28;20047;-66
2022/01/12 11:10:58;;;;;;;8.88;4.97;;;;;;;13.63;15.45;100220.34;5074171;28;20687;-63
2022/01/12 11:13:25;;;;;;;12.80;6.00;;;;;;;13.17;16.29;100253.72;5074072;28;20051;-65
2022/01/12 11:15:52;;;;;;;10.15;5.22;;;;;;;12.52;16.91;100249.78;5090623;28;20071;-70
2022/01/12 11:18:21;;;;;;;15.87;5.77;;;;;;;12.38;16.73;100244.19;5056889;28;20466;-65
2022/01/12 11:20:49;;;;;;;16.03;7.37;;;;;;;12.80;17.47;100246.00;5073911;28;20043;-65
2022/01/12 11:23:17;;;;;;;15.67;6.93;;;;;;;12.65;16.92;100252.91;5073647;28;20122;-65
2022/01/12 11:25:52;;;;;;;11.73;6.40;;;;;;;12.51;17.01;100234.81;5109998;28;20070;-66
2022/01/12 11:28:23;;;;;;;12.13;6.47;;;;;;;12.54;17.53;100220.31;5111965;28;20035;-65
2022/01/12 11:30:50;;;;;;;11.65;5.57;;;;;;;11.76;17.64;100253.94;5095141;28;20414;-64
2022/01/12 11:33:20;;;;;;;12.73;6.27;;;;;;;12.00;16.79;100247.16;5111830;28;20096;-66
2022/01/12 11:35:48;;;;;;;11.70;5.57;;;;;;;12.15;17.18;100211.88;5093093;28;20418;-65
2022/01/12 11:38:31;;;;;;;14.73;6.30;;;;;;;12.76;16.09;100233.94;5076187;28;20126;-72
2022/01/12 11:41:09;;;;;;;13.17;5.87;;;;;;;12.58;17.12;100237.66;5092940;28;20039;-64
2022/01/12 11:43:42;;;;;;;11.67;5.73;;;;;;;11.90;16.75;100186.88;5111116;27;20449;-66
2022/01/12 11:46:14;;;;;;;18.53;6.97;;;;;;;11.57;17.30;100224.78;5094658;28;20032;-64
2022/01/12 11:48:51;;;;;;;13.53;6.50;;;;;;;10.96;17.28;100236.16;5076595;28;20514;-65
2022/01/12 11:51:23;;;;;;;15.63;6.27;;;;;;;10.51;18.53;100213.91;5093254;28;20046;-64
2022/01/12 11:53:55;;;;;;;19.80;7.40;;;;;;;11.11;17.75;100232.03;5093116;28;20039;-67
2022/01/12 11:56:25;;;;;;;12.93;6.97;;;;;;;10.97;19.39;100158.94;5110033;28;20043;-65
2022/01/12 11:59:09;;;;;;;14.43;6.50;;;;;;;10.92;16.81;100208.16;5110240;28;20108;-68
2022/01/12 12:01:45;;;;;;;12.87;6.07;;;;;;;11.40;17.70;100219.41;5109820;28;20043;-65
2022/01/12 12:04:29;;;;;;;9.07;5.40;;;;;;;11.31;17.25;100194.56;5111559;28;20052;-64
2022/01/12 12:07:04;;;;;;;13.93;5.63;;;;;;;11.48;18.18;100208.88;5058280;28;20552;-65
2022/01/12 12:09:52;;;;;;;12.07;5.90;;;;;;;10.63;18.20;100160.47;5108022;28;20039;-72
2022/01/12 12:12:34;;;;;;;13.20;5.93;;;;;;;9.99;18.52;100176.22;5107503;28;20031;-67
2022/01/12 12:15:04;;;;;;;10.50;5.50;;;;;;;9.34;18.49;100197.28;5090791;28;20043;-68
2022/01/12 12:17:32;;;;;;;11.53;6.13;;;;;;;8.69;17.92;100186.34;5107685;28;20441;-71
2022/01/12 12:19:58;;;;;;;13.60;5.87;;;;;;;7.99;19.34;100186.19;5089963;28;20134;-65
2022/01/12 12:22:29;;;;;;;11.30;5.80;;;;;;;8.03;20.06;100181.47;5108133;28;20123;-68
2022/01/12 12:25:03;;;;;;;13.60;5.90;;;;;;;7.66;20.27;100162.53;5105504;28;20042;-65
2022/01/12 12:27:31;;;;;;;13.43;6.53;;;;;;;7.31;20.42;100166.38;5087131;28;20128;-66
2022/01/12 12:30:00;;;;;;;12.57;6.50;;;;;;;7.10;20.83;100170.78;5070467;28;20608;-66
2022/01/12 12:32:43;;;;;;;16.60;6.80;;;;;;;7.27;19.95;100178.19;5106600;28;20036;-66
2022/01/12 12:35:11;;;;;;;11.77;5.57;;;;;;;6.69;20.46;100161.69;5108474;28;20672;-66
2022/01/12 12:37:38;;;;;;;14.90;6.40;;;;;;;6.15;20.94;100168.63;5090415;28;20032;-65
2022/01/12 12:40:25;;;;;;;10.63;6.50;;;;;;;6.52;20.89;100162.19;5090873;28;20411;-65
2022/01/12 12:43:13;;;;;;;10.67;5.70;;;;;;;6.11;21.35;100126.78;5109130;28;20039;-66
2022/01/12 12:45:49;;;;;;;16.50;6.30;;;;;;;5.78;21.51;100137.22;5110325;28;20130;-64
2022/01/12 12:48:17;;;;;;;14.63;7.13;;;;;;;5.34;21.57;100164.25;5092252;28;20044;-65
2022/01/12 12:50:44;;;;;;;16.27;7.70;;;;;;;5.02;21.95;100178.91;5091957;28;20043;-64
2022/01/12 12:53:10;;;;;;;13.63;7.10;;;;;;;4.98;22.14;100167.75;5091165;28;20036;-64
2022/01/12 12:55:39;;;;;;;14.30;6.80;;;;;;;4.87;22.09;100159.75;5091695;28;20134;-65